Terminal Aerodrome Forecast
Issued by NWS North Platte, NE

Home | Current Version | Previous Version | Graphics & Text | Print | Product List | Glossary On
Versions: 1 2 3 4 5 6 7 8 9 10 11 12 13 14 15 16 17 18 19 20 21
965
FTUS43 KLBF 180200 AAB
TAFVTN
TAF AMD
KVTN 180200Z 1802/1824 32020G35KT P6SM -TSRA BKN090CB OVC150
      TEMPO 1802/1804 5SM -TSRA BKN080CB
     FM180500 27007KT P6SM BKN200
     FM181300 30006KT P6SM FEW250
     FM181700 33010KT P6SM SKC=

USA.gov is the U.S. government's official web portal to all federal, state and local government web resources and services.